Time;durP1;ratioP1;P1;durP2;ratioP2;P2;SDS_P1;SDS_P2;PMS_P1;PMS_P2;Temp;Humidity;BMP_temperature;BMP_pressure;BME280_temperature;BME280_humidity;BME280_pressure;Samples;Min_cycle;Max_cycle;Signal;HPM_P1;HPM_P2
2023/05/21 00:02:10;;;;;;;2.97;2.55;;;16.50;91.00;;;;;;6136035;23;20009;-85
2023/05/21 00:04:40;;;;;;;2.63;2.30;;;16.50;91.20;;;;;;6160973;23;20001;-87
2023/05/21 00:07:07;;;;;;;4.00;2.50;;;16.40;91.20;;;;;;6136065;23;20009;-86
2023/05/21 00:09:33;;;;;;;3.33;3.03;;;16.40;91.20;;;;;;6186978;23;20001;-86
2023/05/21 00:11:59;;;;;;;2.92;2.15;;;16.40;91.30;;;;;;6136161;23;20462;-86
2023/05/21 00:14:24;;;;;;;3.85;2.58;;;16.40;91.30;;;;;;6136702;23;20005;-85
2023/05/21 00:16:50;;;;;;;2.97;2.40;;;16.40;91.30;;;;;;6160879;23;20071;-87
2023/05/21 00:19:16;;;;;;;3.28;2.63;;;16.40;91.40;;;;;;6186955;23;20371;-85
2023/05/21 00:21:41;;;;;;;4.38;2.40;;;16.40;91.40;;;;;;6135977;23;20084;-86
2023/05/21 00:24:07;;;;;;;3.65;2.40;;;16.40;91.50;;;;;;6161092;23;20072;-86
2023/05/21 00:26:33;;;;;;;4.20;2.80;;;16.40;91.50;;;;;;6136571;23;20032;-85
2023/05/21 00:28:59;;;;;;;3.90;2.60;;;16.40;91.60;;;;;;6149797;23;20081;-86
2023/05/21 00:31:25;;;;;;;2.90;2.40;;;16.40;91.60;;;;;;6188538;23;20012;-86
2023/05/21 00:33:51;;;;;;;6.13;2.80;;;16.40;91.60;;;;;;6213696;23;20001;-86
2023/05/21 00:36:16;;;;;;;2.80;2.38;;;16.40;91.70;;;;;;6163021;23;20005;-86
2023/05/21 00:38:42;;;;;;;3.92;2.70;;;16.40;91.80;;;;;;6184785;23;19997;-85
2023/05/21 00:41:11;;;;;;;3.40;2.53;;;16.40;91.80;;;;;;6191568;23;20032;-86
2023/05/21 00:43:40;;;;;;;3.03;2.70;;;16.40;91.80;;;;;;6161234;23;20416;-86
2023/05/21 00:46:07;;;;;;;3.72;2.50;;;16.40;91.90;;;;;;6160148;23;20040;-86
2023/05/21 00:48:33;;;;;;;3.35;2.50;;;16.40;91.90;;;;;;6135727;23;20005;-86
2023/05/21 00:50:59;;;;;;;3.92;2.80;;;16.40;91.90;;;;;;6160267;23;20335;-86
2023/05/21 00:53:26;;;;;;;2.90;2.53;;;16.40;92.00;;;;;;6186665;23;19998;-86
2023/05/21 00:55:52;;;;;;;4.57;2.88;;;16.40;92.10;;;;;;6160348;23;20011;-86
2023/05/21 00:58:18;;;;;;;5.88;3.00;;;16.40;92.10;;;;;;6160766;23;20001;-86
2023/05/21 01:00:44;;;;;;;3.00;2.70;;;16.40;92.20;;;;;;6135708;23;20009;-85
2023/05/21 01:03:11;;;;;;;4.07;2.90;;;16.40;92.20;;;;;;6160212;23;20028;-86
2023/05/21 01:05:37;;;;;;;5.18;2.90;;;16.40;92.20;;;;;;6135491;23;20076;-86
2023/05/21 01:08:03;;;;;;;3.35;2.70;;;16.40;92.20;;;;;;6160718;23;20017;-86
2023/05/21 01:10:29;;;;;;;3.85;2.97;;;16.40;92.30;;;;;;6160089;23;20009;-85
2023/05/21 01:12:57;;;;;;;3.47;3.10;;;16.40;92.30;;;;;;6134808;23;20343;-86
2023/05/21 01:15:23;;;;;;;3.72;3.00;;;16.40;92.40;;;;;;6135600;23;20005;-85
2023/05/21 01:17:50;;;;;;;3.58;2.85;;;16.30;92.40;;;;;;6159821;23;20005;-86
2023/05/21 01:20:18;;;;;;;3.72;2.88;;;16.30;92.60;;;;;;6160047;23;20005;-86
2023/05/21 01:22:56;;;;;;;3.75;2.80;;;16.30;92.60;;;;;;6186223;23;20001;-85
2023/05/21 01:25:22;;;;;;;3.67;2.70;;;16.30;92.70;;;;;;6186321;23;20047;-86
2023/05/21 01:27:49;;;;;;;4.10;2.95;;;16.30;92.70;;;;;;6184779;23;20363;-85
2023/05/21 01:30:17;;;;;;;5.18;2.80;;;16.30;92.70;;;;;;6159794;23;20001;-86
2023/05/21 01:32:55;;;;;;;4.18;2.72;;;16.30;92.70;;;;;;6160055;23;20105;-86
2023/05/21 01:35:25;;;;;;;3.20;2.88;;;16.30;92.80;;;;;;6160054;23;20051;-86
2023/05/21 01:38:07;;;;;;;3.88;3.25;;;16.30;92.80;;;;;;6186236;23;20008;-86
2023/05/21 01:41:05;;;;;;;4.50;3.10;;;16.30;92.80;;;;;;6160011;23;20020;-86
2023/05/21 01:43:35;;;;;;;3.67;2.83;;;16.30;92.90;;;;;;6144411;23;20416;-85
2023/05/21 01:46:01;;;;;;;3.80;2.90;;;16.30;92.90;;;;;;6185775;23;20036;-85
2023/05/21 01:48:28;;;;;;;3.88;3.00;;;16.30;92.90;;;;;;6160184;23;20351;-86
2023/05/21 01:51:00;;;;;;;3.20;2.90;;;16.30;92.90;;;;;;6185867;23;20041;-86
2023/05/21 01:53:26;;;;;;;3.90;2.90;;;16.30;93.00;;;;;;6186357;23;20004;-86
2023/05/21 01:55:53;;;;;;;3.92;3.28;;;16.20;93.00;;;;;;6134779;23;20005;-86
2023/05/21 01:58:20;;;;;;;5.15;3.08;;;16.30;93.10;;;;;;6160440;23;20001;-86
2023/05/21 02:00:46;;;;;;;5.22;3.50;;;16.20;93.10;;;;;;6159526;23;20009;-85
2023/05/21 02:03:15;;;;;;;4.32;2.90;;;16.20;93.20;;;;;;6186004;23;20009;-86
2023/05/21 02:05:40;;;;;;;4.10;3.03;;;16.20;93.20;;;;;;6160475;23;20009;-85
2023/05/21 02:08:09;;;;;;;4.90;3.08;;;16.20;93.30;;;;;;6137229;23;20432;-86
2023/05/21 02:10:35;;;;;;;4.93;3.05;;;16.20;93.30;;;;;;6138284;23;20394;-86
2023/05/21 02:13:01;;;;;;;4.20;3.33;;;16.20;93.30;;;;;;6189822;23;20412;-86
2023/05/21 02:15:26;;;;;;;4.10;3.33;;;16.20;93.40;;;;;;6164516;23;19991;-86
2023/05/21 02:17:52;;;;;;;5.22;3.30;;;16.20;93.30;;;;;;6189437;23;19993;-86
2023/05/21 02:20:18;;;;;;;3.55;3.10;;;16.20;93.40;;;;;;6189820;23;20024;-86
2023/05/21 02:22:46;;;;;;;4.18;3.30;;;16.20;93.50;;;;;;6189223;23;20052;-85
2023/05/21 02:25:14;;;;;;;4.30;3.60;;;16.10;93.50;;;;;;6197892;23;20001;-87
2023/05/21 02:27:41;;;;;;;5.30;3.13;;;16.10;93.60;;;;;;6161558;23;20485;-86
2023/05/21 02:30:09;;;;;;;3.97;3.30;;;16.10;93.60;;;;;;6188277;23;20004;-86
2023/05/21 02:32:35;;;;;;;3.70;3.28;;;16.10;93.60;;;;;;6161820;23;20001;-85
2023/05/21 02:35:02;;;;;;;3.22;2.85;;;16.10;93.80;;;;;;6188197;23;20008;-86
2023/05/21 02:37:32;;;;;;;7.20;3.42;;;16.10;93.80;;;;;;6161478;23;20005;-86
2023/05/21 02:39:58;;;;;;;3.67;3.15;;;16.10;93.80;;;;;;6138049;23;20096;-86
2023/05/21 02:42:24;;;;;;;4.05;3.10;;;16.10;93.90;;;;;;6137228;23;20506;-86
2023/05/21 02:44:51;;;;;;;4.93;3.35;;;16.10;93.90;;;;;;6161407;23;20032;-86
2023/05/21 02:47:21;;;;;;;4.35;3.58;;;16.10;93.80;;;;;;6136331;23;20044;-87
2023/05/21 02:49:49;;;;;;;4.35;3.08;;;16.10;93.90;;;;;;6187880;23;19997;-86
2023/05/21 02:52:17;;;;;;;4.32;3.13;;;16.10;94.00;;;;;;6187303;23;20006;-86
2023/05/21 02:54:43;;;;;;;3.80;3.17;;;16.00;94.00;;;;;;6161539;23;20059;-86
2023/05/21 02:57:08;;;;;;;4.25;3.47;;;16.10;94.00;;;;;;6136957;23;20009;-87
2023/05/21 02:59:34;;;;;;;5.38;3.45;;;16.10;94.00;;;;;;6161360;23;20001;-87
2023/05/21 03:02:00;;;;;;;4.15;3.20;;;16.10;94.00;;;;;;6161183;23;20009;-86
2023/05/21 03:04:27;;;;;;;3.80;3.40;;;16.10;94.00;;;;;;6161457;23;20005;-86
2023/05/21 03:06:53;;;;;;;5.07;3.78;;;16.20;94.00;;;;;;6136794;23;20059;-86
2023/05/21 03:09:20;;;;;;;4.55;3.50;;;16.20;94.10;;;;;;6136981;23;20092;-85
2023/05/21 03:11:46;;;;;;;6.03;3.30;;;16.10;94.10;;;;;;6136561;23;20009;-83
2023/05/21 03:14:13;;;;;;;5.07;3.58;;;16.10;94.20;;;;;;6136047;23;20059;-87
2023/05/21 03:16:40;;;;;;;4.20;3.08;;;16.10;94.20;;;;;;6187503;23;20054;-86
2023/05/21 03:19:06;;;;;;;4.13;3.33;;;16.10;94.20;;;;;;6136333;23;20005;-85
2023/05/21 03:21:32;;;;;;;3.83;3.42;;;16.20;94.20;;;;;;6161395;23;20453;-85
2023/05/21 03:23:59;;;;;;;4.35;3.55;;;16.10;94.10;;;;;;6160914;23;20080;-85
2023/05/21 03:26:28;;;;;;;4.90;3.60;;;16.20;94.20;;;;;;6136793;23;20005;-86
2023/05/21 03:28:55;;;;;;;5.30;3.60;;;16.10;94.20;;;;;;6161637;23;20083;-85
2023/05/21 03:31:21;;;;;;;4.57;3.40;;;16.10;94.30;;;;;;6161223;23;20060;-85
2023/05/21 03:33:47;;;;;;;4.20;3.28;;;16.10;94.30;;;;;;6135926;23;20001;-86
2023/05/21 03:36:13;;;;;;;5.07;3.47;;;16.10;94.40;;;;;;6160836;23;20016;-87
2023/05/21 03:38:39;;;;;;;4.00;3.47;;;16.10;94.40;;;;;;6161096;23;20057;-86
2023/05/21 03:41:05;;;;;;;4.72;3.65;;;16.10;94.50;;;;;;6136376;23;20059;-86
2023/05/21 03:43:31;;;;;;;5.35;3.75;;;16.10;94.50;;;;;;6160846;23;20083;-86
2023/05/21 03:45:56;;;;;;;5.63;3.75;;;16.00;94.50;;;;;;6160025;23;20037;-85
2023/05/21 03:48:22;;;;;;;4.18;3.47;;;16.10;94.50;;;;;;6161078;23;20477;-85
2023/05/21 03:50:48;;;;;;;5.22;3.85;;;16.00;94.50;;;;;;6136441;23;20027;-86
2023/05/21 03:53:13;;;;;;;4.13;3.60;;;16.00;94.60;;;;;;6135959;23;20028;-86
2023/05/21 03:55:39;;;;;;;5.50;4.15;;;16.00;94.70;;;;;;6160963;23;20012;-86
2023/05/21 03:58:05;;;;;;;7.38;4.43;;;15.90;94.70;;;;;;6160908;23;20008;-86
2023/05/21 04:00:31;;;;;;;4.90;4.00;;;15.80;94.90;;;;;;6139938;23;20335;-85
2023/05/21 04:02:57;;;;;;;5.00;3.70;;;15.80;95.00;;;;;;6183286;23;20009;-84
2023/05/21 04:05:23;;;;;;;4.85;3.60;;;15.80;95.10;;;;;;6188863;23;19995;-85
2023/05/21 04:07:49;;;;;;;4.25;3.38;;;15.80;95.00;;;;;;6188717;23;20001;-85
2023/05/21 04:10:17;;;;;;;4.80;3.72;;;15.90;95.10;;;;;;6172404;23;20005;-86
2023/05/21 04:12:42;;;;;;;5.75;3.90;;;15.80;95.10;;;;;;6136547;23;20012;-86
2023/05/21 04:15:09;;;;;;;4.13;3.40;;;15.90;95.10;;;;;;6135988;23;20005;-85
2023/05/21 04:17:34;;;;;;;5.10;4.10;;;15.90;95.00;;;;;;6187003;23;20002;-85
2023/05/21 04:20:00;;;;;;;6.03;3.95;;;15.90;95.10;;;;;;6160190;23;20008;-85
2023/05/21 04:22:26;;;;;;;5.60;4.10;;;15.90;95.10;;;;;;6186844;23;20009;-86
2023/05/21 04:24:53;;;;;;;4.70;3.70;;;15.90;95.10;;;;;;6135920;23;20001;-86
2023/05/21 04:27:22;;;;;;;4.88;4.30;;;15.90;95.20;;;;;;6160382;23;20001;-85
2023/05/21 04:29:49;;;;;;;5.80;4.13;;;15.90;95.30;;;;;;6136442;23;20055;-86
2023/05/21 04:32:18;;;;;;;3.90;3.50;;;15.90;95.30;;;;;;6160396;23;20017;-85
2023/05/21 04:34:43;;;;;;;5.50;3.83;;;15.90;95.30;;;;;;6185339;23;20313;-86
2023/05/21 04:37:09;;;;;;;6.35;3.83;;;15.90;95.50;;;;;;6160549;23;20009;-85
2023/05/21 04:39:40;;;;;;;4.93;3.95;;;15.80;95.50;;;;;;6136340;23;20016;-86
2023/05/21 04:42:05;;;;;;;6.47;3.95;;;15.80;95.50;;;;;;6185335;23;20319;-86
2023/05/21 04:44:31;;;;;;;6.40;4.18;;;15.90;95.60;;;;;;6160387;23;20008;-86
2023/05/21 04:46:57;;;;;;;4.70;3.88;;;15.90;95.70;;;;;;6159568;23;20055;-83
2023/05/21 04:49:23;;;;;;;4.45;3.97;;;15.90;95.70;;;;;;6160243;23;20013;-86
2023/05/21 04:51:48;;;;;;;4.47;4.07;;;15.90;95.80;;;;;;6160157;23;20013;-86
2023/05/21 04:54:17;;;;;;;6.95;4.32;;;15.90;95.80;;;;;;6160022;23;20009;-86
2023/05/21 04:56:43;;;;;;;6.60;4.05;;;15.90;95.90;;;;;;6136014;23;20013;-86
2023/05/21 04:59:09;;;;;;;5.45;4.30;;;15.90;96.00;;;;;;6159969;23;20009;-86
2023/05/21 05:01:37;;;;;;;4.65;4.05;;;15.90;96.10;;;;;;6186552;23;20001;-85
2023/05/21 05:04:03;;;;;;;5.05;4.22;;;15.90;96.10;;;;;;6160576;23;20009;-85
2023/05/21 05:06:28;;;;;;;4.85;4.22;;;15.90;96.20;;;;;;6186272;23;20395;-86
2023/05/21 05:09:01;;;;;;;7.63;4.63;;;15.90;96.20;;;;;;6160069;23;20060;-86
2023/05/21 05:11:27;;;;;;;7.10;4.75;;;15.90;96.30;;;;;;6185966;23;20013;-86
2023/05/21 05:13:52;;;;;;;5.68;4.22;;;15.90;96.40;;;;;;6186522;23;20059;-84
2023/05/21 05:16:23;;;;;;;5.45;4.45;;;15.80;96.40;;;;;;6159966;23;20008;-85
2023/05/21 05:18:53;;;;;;;6.25;3.80;;;15.80;96.60;;;;;;6161395;23;20009;-85
2023/05/21 05:21:20;;;;;;;5.13;4.28;;;15.80;96.70;;;;;;6161022;23;20064;-84
2023/05/21 05:23:46;;;;;;;5.50;4.70;;;15.70;96.80;;;;;;6160322;23;20005;-85
2023/05/21 05:26:12;;;;;;;6.20;4.35;;;15.80;96.90;;;;;;6160094;23;20005;-86
2023/05/21 05:28:37;;;;;;;4.55;3.88;;;15.80;96.90;;;;;;6186003;23;20001;-86
2023/05/21 05:31:03;;;;;;;5.82;5.10;;;15.80;96.90;;;;;;6134986;23;20037;-86
2023/05/21 05:33:29;;;;;;;5.05;4.53;;;15.80;97.00;;;;;;6160891;23;20002;-86
2023/05/21 05:35:54;;;;;;;5.32;4.38;;;15.70;97.10;;;;;;6135873;23;20419;-86
2023/05/21 05:38:20;;;;;;;5.50;4.85;;;15.80;97.10;;;;;;6161487;23;20015;-85
2023/05/21 05:40:45;;;;;;;6.43;4.80;;;15.80;97.20;;;;;;6175925;23;20037;-85
2023/05/21 05:43:11;;;;;;;6.50;4.65;;;15.80;97.20;;;;;;6214743;23;19992;-83
2023/05/21 05:45:37;;;;;;;7.53;4.35;;;15.80;97.30;;;;;;6215115;23;19997;-85
2023/05/21 05:48:06;;;;;;;6.55;5.07;;;15.80;97.20;;;;;;6187132;23;20032;-85
2023/05/21 05:50:34;;;;;;;6.32;4.97;;;15.90;97.30;;;;;;6188783;23;20028;-83
2023/05/21 05:53:00;;;;;;;6.72;4.80;;;15.90;97.40;;;;;;6177484;23;20443;-85
2023/05/21 05:55:25;;;;;;;5.30;4.40;;;15.80;97.40;;;;;;6163307;23;20041;-85
2023/05/21 05:57:52;;;;;;;6.90;4.80;;;15.80;97.40;;;;;;6162513;23;20329;-85
2023/05/21 06:00:18;;;;;;;5.63;4.63;;;15.90;97.50;;;;;;6137562;23;20005;-85
2023/05/21 06:02:44;;;;;;;5.68;4.65;;;15.90;97.50;;;;;;6161648;23;20009;-84
2023/05/21 06:05:10;;;;;;;6.20;4.82;;;15.90;97.60;;;;;;6161674;23;20036;-85
2023/05/21 06:07:39;;;;;;;6.90;4.80;;;15.90;97.70;;;;;;6161508;23;19997;-85
2023/05/21 06:10:06;;;;;;;7.07;4.68;;;16.00;97.70;;;;;;6161581;23;20008;-85
2023/05/21 06:12:32;;;;;;;7.20;4.53;;;16.00;97.70;;;;;;6161468;23;20092;-85
2023/05/21 06:14:58;;;;;;;5.97;4.95;;;16.10;97.60;;;;;;6187818;23;20389;-85
2023/05/21 06:17:24;;;;;;;9.02;4.97;;;16.10;97.60;;;;;;6136889;23;20096;-85
2023/05/21 06:19:49;;;;;;;7.20;5.10;;;16.10;97.70;;;;;;6137324;23;20351;-85
2023/05/21 06:22:15;;;;;;;5.65;5.00;;;16.10;97.80;;;;;;6161702;23;20032;-85
2023/05/21 06:24:41;;;;;;;5.70;4.53;;;16.10;97.90;;;;;;6137066;23;20435;-85
2023/05/21 06:27:06;;;;;;;6.30;4.68;;;16.20;97.80;;;;;;6137009;23;20083;-85
2023/05/21 06:29:32;;;;;;;5.55;4.45;;;16.20;97.80;;;;;;6136303;23;20005;-85
2023/05/21 06:31:57;;;;;;;5.53;4.55;;;16.20;97.80;;;;;;6161275;23;20013;-85
2023/05/21 06:34:23;;;;;;;5.78;4.38;;;16.30;97.80;;;;;;6136843;23;20040;-85
2023/05/21 06:36:50;;;;;;;7.13;4.90;;;16.30;97.80;;;;;;6137004;23;20087;-86
2023/05/21 06:39:16;;;;;;;7.22;5.55;;;16.40;97.80;;;;;;6161073;23;20423;-86
2023/05/21 06:41:41;;;;;;;7.35;5.10;;;16.40;97.80;;;;;;6160984;23;20005;-85
2023/05/21 06:44:07;;;;;;;6.15;5.18;;;16.50;97.80;;;;;;6161311;23;20053;-85
2023/05/21 06:46:34;;;;;;;6.45;4.97;;;16.50;97.80;;;;;;6161133;23;20025;-85
2023/05/21 06:49:00;;;;;;;8.25;5.38;;;16.60;97.70;;;;;;6161849;23;20043;-86
2023/05/21 06:51:25;;;;;;;7.65;5.13;;;16.60;97.70;;;;;;6160691;23;20009;-86
2023/05/21 06:53:51;;;;;;;9.32;5.38;;;16.70;97.80;;;;;;6135885;23;20068;-86
2023/05/21 06:56:17;;;;;;;7.68;5.05;;;16.70;97.70;;;;;;6136385;23;20008;-86
2023/05/21 06:58:43;;;;;;;6.68;4.70;;;16.80;97.70;;;;;;6187438;23;20002;-85
2023/05/21 07:01:10;;;;;;;7.47;5.60;;;16.90;97.60;;;;;;6136442;23;20099;-85
2023/05/21 07:03:36;;;;;;;6.22;5.15;;;17.00;97.50;;;;;;6137053;23;20395;-85
2023/05/21 07:06:01;;;;;;;6.20;5.03;;;17.10;97.40;;;;;;6136332;23;20001;-85
2023/05/21 07:08:27;;;;;;;6.55;5.22;;;17.10;97.40;;;;;;6161277;23;20001;-86
2023/05/21 07:10:53;;;;;;;10.77;6.10;;;17.10;97.40;;;;;;6187136;23;20397;-86
2023/05/21 07:13:18;;;;;;;7.85;5.95;;;17.20;97.30;;;;;;6187521;23;20005;-86
2023/05/21 07:15:44;;;;;;;5.68;5.00;;;17.20;97.20;;;;;;6161369;23;20366;-85
2023/05/21 07:18:10;;;;;;;10.77;5.68;;;17.30;97.30;;;;;;6161694;23;20005;-86
2023/05/21 07:20:36;;;;;;;10.82;6.20;;;17.30;97.20;;;;;;6136764;23;20016;-86
2023/05/21 07:23:02;;;;;;;7.10;5.28;;;17.30;97.10;;;;;;6161426;23;20005;-85
2023/05/21 07:25:27;;;;;;;7.03;4.97;;;17.40;97.10;;;;;;6162326;23;20490;-86
2023/05/21 07:27:53;;;;;;;7.70;6.10;;;17.40;97.10;;;;;;6178494;23;20001;-85
2023/05/21 07:30:19;;;;;;;7.93;5.55;;;17.50;97.10;;;;;;6163997;23;19981;-84
2023/05/21 07:32:45;;;;;;;6.28;5.30;;;17.50;97.10;;;;;;6188870;23;20034;-85
2023/05/21 07:35:10;;;;;;;6.85;5.07;;;17.60;97.00;;;;;;6181793;23;20001;-86
2023/05/21 07:37:36;;;;;;;7.25;5.47;;;17.70;97.00;;;;;;6182153;23;20028;-85
2023/05/21 07:40:03;;;;;;;7.35;5.72;;;17.70;96.90;;;;;;6162211;23;20366;-85
2023/05/21 07:42:29;;;;;;;6.28;5.63;;;17.80;96.80;;;;;;6161300;23;20013;-85
2023/05/21 07:44:55;;;;;;;6.93;5.00;;;17.90;96.80;;;;;;6187309;23;19997;-86
2023/05/21 07:47:22;;;;;;;5.93;5.28;;;17.90;96.70;;;;;;6160276;23;20040;-86
2023/05/21 07:49:48;;;;;;;5.95;5.28;;;18.00;96.70;;;;;;6136618;23;20103;-85
2023/05/21 07:52:13;;;;;;;7.22;5.30;;;18.00;96.50;;;;;;6136329;23;20045;-86
2023/05/21 07:54:39;;;;;;;5.45;4.90;;;18.10;96.50;;;;;;6186644;23;20033;-86
2023/05/21 07:57:05;;;;;;;6.63;5.28;;;18.20;96.40;;;;;;6160585;23;20028;-86
2023/05/21 07:59:32;;;;;;;6.28;5.50;;;18.30;96.40;;;;;;6160719;23;20001;-86
2023/05/21 08:01:58;;;;;;;6.43;4.97;;;18.40;96.40;;;;;;6136709;23;20009;-86
2023/05/21 08:04:23;;;;;;;9.13;5.78;;;18.50;96.30;;;;;;6160672;23;20449;-86
2023/05/21 08:06:49;;;;;;;8.05;5.97;;;18.50;96.10;;;;;;6160439;23;20005;-86
2023/05/21 08:09:15;;;;;;;8.18;5.60;;;18.50;96.00;;;;;;6134280;23;20088;-86
2023/05/21 08:11:41;;;;;;;8.27;6.20;;;18.50;96.00;;;;;;6135889;23;20055;-86
2023/05/21 08:14:06;;;;;;;7.00;5.43;;;18.50;95.90;;;;;;6186762;23;20005;-85
2023/05/21 08:16:37;;;;;;;7.18;5.80;;;18.50;96.00;;;;;;6160473;23;20005;-86
2023/05/21 08:19:03;;;;;;;6.20;4.97;;;18.60;96.20;;;;;;6160635;23;20020;-87
2023/05/21 08:21:31;;;;;;;9.65;7.10;;;18.60;95.90;;;;;;6160185;23;20009;-86
2023/05/21 08:23:58;;;;;;;8.35;7.18;;;18.60;95.70;;;;;;6136553;23;20075;-86
2023/05/21 08:26:24;;;;;;;7.57;6.70;;;18.70;95.70;;;;;;6186452;23;20032;-86
2023/05/21 08:28:50;;;;;;;6.53;5.35;;;18.70;95.70;;;;;;6160338;23;20005;-86
2023/05/21 08:31:17;;;;;;;8.10;6.10;;;18.80;95.80;;;;;;6160287;23;20084;-86
2023/05/21 08:33:50;;;;;;;8.80;6.28;;;18.90;95.80;;;;;;6186628;23;20005;-86
2023/05/21 08:36:16;;;;;;;8.23;6.57;;;19.00;95.50;;;;;;6135090;23;20028;-85
2023/05/21 08:38:42;;;;;;;9.18;6.95;;;19.10;95.40;;;;;;6135442;23;20037;-85
2023/05/21 08:41:10;;;;;;;8.68;6.75;;;19.20;95.40;;;;;;6160847;23;20005;-86
2023/05/21 08:43:37;;;;;;;10.13;6.70;;;19.20;95.40;;;;;;6186853;23;19997;-86
2023/05/21 08:46:03;;;;;;;11.77;7.50;;;19.20;95.20;;;;;;6160691;23;20000;-86
2023/05/21 08:48:30;;;;;;;6.20;5.47;;;19.30;95.20;;;;;;6160043;23;20060;-87
2023/05/21 08:50:57;;;;;;;7.70;5.97;;;19.40;95.30;;;;;;6185185;23;20017;-86
2023/05/21 08:53:24;;;;;;;9.85;6.60;;;19.50;95.10;;;;;;6160224;23;20080;-85
2023/05/21 08:55:52;;;;;;;9.10;6.35;;;19.60;95.00;;;;;;6159994;23;20415;-86
2023/05/21 08:58:19;;;;;;;7.97;6.82;;;19.60;95.00;;;;;;6160415;23;20331;-87
2023/05/21 09:00:44;;;;;;;7.10;5.60;;;19.70;94.90;;;;;;6160094;23;20331;-86
2023/05/21 09:03:12;;;;;;;7.55;6.25;;;19.80;94.80;;;;;;6160610;23;20076;-87
2023/05/21 09:05:42;;;;;;;7.30;5.72;;;19.80;94.90;;;;;;6186680;23;20001;-86
2023/05/21 09:08:13;;;;;;;7.60;6.18;;;20.00;94.90;;;;;;6159985;23;20004;-86
2023/05/21 09:10:45;;;;;;;10.10;6.53;;;20.00;94.80;;;;;;6160490;23;20059;-86
2023/05/21 09:13:11;;;;;;;8.57;6.90;;;20.10;94.60;;;;;;6188701;23;20007;-86
2023/05/21 09:15:37;;;;;;;9.20;6.80;;;20.20;94.90;;;;;;6169405;23;20036;-86
2023/05/21 09:18:03;;;;;;;10.60;8.30;;;20.20;94.40;;;;;;6161194;23;20066;-88
2023/05/21 09:20:28;;;;;;;9.50;7.60;;;20.20;94.10;;;;;;6163343;23;20003;-86
2023/05/21 09:22:54;;;;;;;9.05;6.70;;;20.20;94.20;;;;;;6187103;23;20016;-87
2023/05/21 09:25:29;;;;;;;7.65;6.85;;;20.20;94.20;;;;;;6157336;23;20019;-87
2023/05/21 09:27:58;;;;;;;9.75;8.32;;;20.20;94.10;;;;;;6201425;23;19998;-87
2023/05/21 09:30:24;;;;;;;10.02;8.25;;;20.20;94.00;;;;;;6160673;23;20058;-87
2023/05/21 09:32:57;;;;;;;9.50;8.30;;;20.20;94.00;;;;;;6186890;23;20024;-86
2023/05/21 09:35:23;;;;;;;9.10;7.18;;;20.30;94.10;;;;;;6160671;23;20427;-86
2023/05/21 09:37:51;;;;;;;9.32;7.50;;;20.30;94.10;;;;;;6160772;23;20029;-86
2023/05/21 09:40:19;;;;;;;9.75;8.07;;;20.40;94.10;;;;;;6186470;23;20002;-87
2023/05/21 09:42:47;;;;;;;9.18;7.28;;;20.50;93.90;;;;;;6160124;23;20080;-87
2023/05/21 09:45:33;;;;;;;10.35;8.60;;;20.50;93.90;;;;;;6160186;23;20005;-86
2023/05/21 09:47:59;;;;;;;10.98;9.45;;;20.60;93.80;;;;;;6160063;23;20423;-87
2023/05/21 09:50:26;;;;;;;10.88;8.85;;;20.60;93.60;;;;;;6135576;23;20005;-87
2023/05/21 09:52:54;;;;;;;10.15;8.63;;;20.60;93.60;;;;;;6160141;23;20029;-86
2023/05/21 09:55:24;;;;;;;11.90;9.40;;;20.60;93.40;;;;;;6186655;23;20001;-86
2023/05/21 09:57:51;;;;;;;12.48;9.02;;;20.70;93.50;;;;;;6159964;23;20008;-87
2023/05/21 10:00:27;;;;;;;10.70;9.60;;;20.70;93.50;;;;;;6134883;23;20001;-87
2023/05/21 10:02:54;;;;;;;9.85;8.85;;;20.80;93.50;;;;;;6159755;23;20004;-87
2023/05/21 10:05:23;;;;;;;12.77;11.23;;;20.90;93.60;;;;;;6186487;23;20007;-87
2023/05/21 10:07:53;;;;;;;11.77;10.63;;;20.90;93.40;;;;;;6136003;23;20095;-87
2023/05/21 10:10:22;;;;;;;13.75;10.85;;;20.90;93.20;;;;;;6160170;23;20001;-86
2023/05/21 10:12:54;;;;;;;11.75;9.90;;;21.00;93.30;;;;;;6186363;23;20031;-86
2023/05/21 10:15:23;;;;;;;9.27;8.23;;;21.00;93.30;;;;;;6185091;23;20383;-86
2023/05/21 10:17:49;;;;;;;11.40;10.20;;;21.10;93.50;;;;;;6186238;23;20060;-86
2023/05/21 10:20:16;;;;;;;12.75;10.90;;;21.20;93.40;;;;;;6160106;23;20083;-87
2023/05/21 10:22:43;;;;;;;13.00;10.93;;;21.20;93.10;;;;;;6159880;23;20375;-87
2023/05/21 10:25:12;;;;;;;10.68;9.55;;;21.20;92.90;;;;;;6186236;23;20001;-86
2023/05/21 10:27:38;;;;;;;11.95;9.85;;;21.20;93.00;;;;;;6159428;23;20312;-86
2023/05/21 10:30:05;;;;;;;13.00;9.77;;;21.30;93.00;;;;;;6137142;23;20431;-86
2023/05/21 10:32:31;;;;;;;12.43;9.90;;;21.30;93.00;;;;;;6187589;23;20016;-86
2023/05/21 10:34:58;;;;;;;12.45;10.38;;;21.30;93.00;;;;;;6137216;23;20001;-86
2023/05/21 10:37:27;;;;;;;10.57;9.48;;;21.40;93.00;;;;;;6161753;23;20008;-86
2023/05/21 10:39:53;;;;;;;10.88;9.30;;;21.40;93.30;;;;;;6187973;23;20032;-86
2023/05/21 10:42:28;;;;;;;13.20;9.80;;;21.50;93.00;;;;;;6161582;23;20009;-86
2023/05/21 10:45:12;;;;;;;11.65;10.45;;;21.50;93.00;;;;;;6161504;23;20095;-86
2023/05/21 10:47:40;;;;;;;13.35;10.75;;;21.50;93.00;;;;;;6160884;23;20096;-87
2023/05/21 10:50:25;;;;;;;11.23;9.82;;;21.60;92.70;;;;;;6161651;23;20012;-86
2023/05/21 10:53:29;;;;;;;8.98;8.07;;;21.50;92.80;;;;;;6161326;23;20009;-87
2023/05/21 10:56:34;;;;;;;14.35;10.38;;;21.50;93.00;;;;;;6151358;23;20008;-86
2023/05/21 10:59:20;;;;;;;12.93;10.95;;;21.60;92.80;;;;;;6161205;23;20397;-86
2023/05/21 11:01:48;;;;;;;11.40;10.23;;;21.60;92.80;;;;;;6161581;23;20001;-86
2023/05/21 11:04:14;;;;;;;12.48;9.77;;;21.60;92.70;;;;;;6187792;23;20001;-86
2023/05/21 11:06:47;;;;;;;9.77;8.18;;;21.60;92.70;;;;;;6162306;23;20012;-86
2023/05/21 11:09:14;;;;;;;9.50;8.60;;;21.70;92.80;;;;;;6166401;23;20017;-86
2023/05/21 11:11:50;;;;;;;14.15;11.05;;;21.80;92.80;;;;;;6180501;23;20013;-85
2023/05/21 11:14:33;;;;;;;12.15;10.15;;;21.80;92.40;;;;;;6214938;23;19981;-86
2023/05/21 11:17:03;;;;;;;11.73;9.07;;;21.80;92.50;;;;;;6189089;23;20016;-86
2023/05/21 11:20:03;;;;;;;9.48;8.32;;;21.80;92.50;;;;;;6164747;23;20005;-86
2023/05/21 11:22:29;;;;;;;10.52;8.85;;;21.90;92.60;;;;;;6187763;23;19985;-86
2023/05/21 11:25:01;;;;;;;8.80;7.90;;;22.00;92.60;;;;;;6139718;23;20005;-86
2023/05/21 11:27:37;;;;;;;9.32;7.70;;;22.10;92.60;;;;;;6161947;23;20009;-86
2023/05/21 11:30:07;;;;;;;9.00;8.20;;;22.10;92.70;;;;;;6187353;23;19997;-86
2023/05/21 11:33:00;;;;;;;10.93;9.00;;;22.20;92.60;;;;;;6160924;23;20027;-85
2023/05/21 11:35:26;;;;;;;10.38;7.47;;;22.30;92.50;;;;;;6140279;23;20042;-87
2023/05/21 11:37:55;;;;;;;9.98;8.32;;;22.40;92.60;;;;;;6160861;23;20089;-87
2023/05/21 11:40:29;;;;;;;8.88;7.97;;;22.50;92.50;;;;;;6136029;23;20009;-86
2023/05/21 11:42:55;;;;;;;12.30;9.25;;;22.60;92.40;;;;;;6136779;23;20001;-86
2023/05/21 11:45:23;;;;;;;10.90;8.63;;;22.60;92.10;;;;;;6185715;23;20032;-87
2023/05/21 11:47:51;;;;;;;11.43;9.05;;;22.60;92.00;;;;;;6187445;23;20013;-86
2023/05/21 11:50:17;;;;;;;9.98;8.98;;;22.60;92.00;;;;;;6186996;23;20354;-87
2023/05/21 11:52:44;;;;;;;10.75;9.48;;;22.60;91.90;;;;;;6160942;23;20424;-84
2023/05/21 11:55:10;;;;;;;10.18;9.18;;;22.60;92.00;;;;;;6187169;23;20285;-87
2023/05/21 11:57:36;;;;;;;10.45;8.93;;;22.70;91.80;;;;;;6160602;23;20001;-86
2023/05/21 12:00:11;;;;;;;11.13;8.20;;;22.70;91.70;;;;;;6185596;23;20323;-87
2023/05/21 12:02:36;;;;;;;8.85;7.90;;;22.70;91.80;;;;;;6160676;23;20001;-85
2023/05/21 12:05:02;;;;;;;8.98;8.00;;;22.70;91.80;;;;;;6186887;23;20080;-87
2023/05/21 12:07:30;;;;;;;9.93;8.55;;;22.70;91.70;;;;;;6161265;23;20009;-87
2023/05/21 12:09:57;;;;;;;10.57;8.18;;;22.80;91.70;;;;;;6160973;23;20001;-86
2023/05/21 12:12:31;;;;;;;9.00;8.10;;;22.80;91.60;;;;;;6160417;23;20408;-86
2023/05/21 12:15:01;;;;;;;8.30;7.50;;;22.90;91.60;;;;;;6136000;23;20515;-86
2023/05/21 12:17:27;;;;;;;8.45;7.55;;;22.90;91.60;;;;;;6160136;23;20006;-85
2023/05/21 12:19:56;;;;;;;10.13;8.88;;;22.90;91.70;;;;;;6135670;23;20514;-86
2023/05/21 12:22:23;;;;;;;8.77;7.50;;;23.00;91.50;;;;;;6160722;23;20009;-92
2023/05/21 12:24:50;;;;;;;8.45;7.32;;;23.10;91.60;;;;;;6187651;23;20013;-89
2023/05/21 12:27:17;;;;;;;8.80;7.65;;;23.10;91.60;;;;;;6163572;23;20001;-91
2023/05/21 12:29:43;;;;;;;9.52;8.52;;;23.20;91.60;;;;;;6163706;23;20025;-90
2023/05/21 12:32:11;;;;;;;11.38;9.43;;;23.20;91.40;;;;;;6161647;23;20301;-89
2023/05/21 12:34:47;;;;;;;12.15;9.38;;;23.20;91.10;;;;;;6189780;23;19997;-93
2023/05/21 12:37:24;;;;;;;9.27;7.50;;;23.20;91.00;;;;;;6164183;23;20044;-91
2023/05/21 12:39:52;;;;;;;9.02;8.13;;;23.30;91.20;;;;;;6187484;23;20035;-91
2023/05/21 12:42:34;;;;;;;11.65;7.88;;;23.30;91.30;;;;;;6163830;23;20009;-89
2023/05/21 12:45:06;;;;;;;9.73;8.65;;;23.40;91.10;;;;;;6140319;23;20001;-91
2023/05/21 12:47:32;;;;;;;9.75;8.50;;;23.50;91.00;;;;;;6165403;23;20450;-90
2023/05/21 12:50:03;;;;;;;13.65;10.68;;;23.50;90.90;;;;;;6140952;23;20005;-93